WJA2400 CYXE-MMPR
Flight info
| Callsign | WJA2400 |
|---|---|
| Flight time | 4h 27m |
| Altitude | 37000 |
| Route | TAGOT DCT GGW DCT DDY DCT HECLA/N0444F390 DCT ACH DCT HOPET/N0452F380 DCT SUMMY/N0451F390 DCT KEYLO J141 ELQ UJ27 DGO UJ37 MAVED DCT KEDMA KEDMA1A |
| Aircraft | B38M/M-SDE1FGHILORVWXY/HB1 |
Departure
| Time | 2026-04-19 13:58 |
|---|---|
| Airport | Saskatoon John G. Diefenbaker International Airport (CYXE) |
Arrival
| Time | 2026-04-19 18:25 |
|---|---|
| Airport | Puerto Vallarta International Airport (MMPR) |
| Time | Latitude | Longitude | Altitude | Speed | Heading |
|---|---|---|---|---|---|
| 2026-04-19 13:55 | 52.17369 | -106.70474 | 1652 ft | 30 kts | 282° |
| 2026-04-19 13:55 | 52.17402 | -106.70753 | 1652 ft | 27 kts | 281° |
| 2026-04-19 13:56 | 52.17436 | -106.71043 | 1652 ft | 24 kts | 281° |
| 2026-04-19 13:56 | 52.17470 | -106.71329 | 1652 ft | 22 kts | 281° |
| 2026-04-19 13:56 | 52.17525 | -106.71545 | 1652 ft | 21 kts | 322° |
| 2026-04-19 13:56 | 52.17661 | -106.71695 | 1652 ft | 27 kts | 326° |
| 2026-04-19 13:57 | 52.17775 | -106.71799 | 1652 ft | 20 kts | 355° |
| 2026-04-19 13:57 | 52.17843 | -106.71674 | 1653 ft | 12 kts | 103° |
| 2026-04-19 13:57 | 52.17820 | -106.71524 | 1653 ft | 28 kts | 103° |
| 2026-04-19 13:57 | 52.17726 | -106.70752 | 1651 ft | 109 kts | 101° |
| 2026-04-19 13:58 | 52.17538 | -106.69196 | 1733 ft | 160 kts | 102° |
| 2026-04-19 13:58 | 52.17336 | -106.67370 | 2376 ft | 170 kts | 101° |
| 2026-04-19 13:58 | 52.17135 | -106.65477 | 3121 ft | 173 kts | 101° |
| 2026-04-19 13:58 | 52.16757 | -106.63496 | 3417 ft | 199 kts | 125° |
| 2026-04-19 13:59 | 52.16114 | -106.62319 | 3671 ft | 213 kts | 141° |
| 2026-04-19 13:59 | 52.14717 | -106.61298 | 4054 ft | 233 kts | 173° |
| 2026-04-19 13:59 | 52.13134 | -106.61650 | 4892 ft | 231 kts | 198° |
| 2026-04-19 13:59 | 52.11591 | -106.62522 | 5612 ft | 239 kts | 200° |
| 2026-04-19 14:00 | 52.10009 | -106.63414 | 6369 ft | 243 kts | 200° |
| 2026-04-19 14:00 | 52.08386 | -106.64302 | 7044 ft | 252 kts | 200° |
| 2026-04-19 14:00 | 52.06662 | -106.65228 | 7492 ft | 270 kts | 200° |
| 2026-04-19 14:00 | 52.04839 | -106.66196 | 8130 ft | 278 kts | 200° |
| 2026-04-19 14:01 | 52.02988 | -106.67164 | 8921 ft | 282 kts | 200° |
| 2026-04-19 14:01 | 52.01093 | -106.68142 | 9622 ft | 289 kts | 200° |
| 2026-04-19 14:01 | 51.99158 | -106.69115 | 10343 ft | 294 kts | 200° |
| 2026-04-19 14:01 | 51.97099 | -106.69827 | 10774 ft | 315 kts | 184° |
| 2026-04-19 14:02 | 51.94848 | -106.69685 | 11227 ft | 332 kts | 180° |
| 2026-04-19 14:02 | 51.92505 | -106.69575 | 11828 ft | 340 kts | 181° |
| 2026-04-19 14:02 | 51.90131 | -106.69492 | 12601 ft | 344 kts | 182° |
| 2026-04-19 14:02 | 51.87742 | -106.69427 | 13288 ft | 350 kts | 182° |
| 2026-04-19 14:03 | 51.85292 | -106.69371 | 14052 ft | 354 kts | 182° |
| 2026-04-19 14:03 | 51.82810 | -106.69318 | 14799 ft | 359 kts | 183° |
| 2026-04-19 14:03 | 51.80297 | -106.69266 | 15541 ft | 364 kts | 183° |
| 2026-04-19 14:03 | 51.77749 | -106.69215 | 16270 ft | 368 kts | 183° |
| 2026-04-19 14:04 | 51.75170 | -106.69162 | 16954 ft | 373 kts | 183° |
| 2026-04-19 14:04 | 51.72562 | -106.69110 | 17649 ft | 377 kts | 183° |
| 2026-04-19 14:04 | 51.69925 | -106.69057 | 18297 ft | 381 kts | 183° |
| 2026-04-19 14:04 | 51.67255 | -106.69003 | 18915 ft | 386 kts | 183° |
| 2026-04-19 14:05 | 51.64555 | -106.68949 | 19520 ft | 391 kts | 183° |
| 2026-04-19 14:05 | 51.61818 | -106.68894 | 20100 ft | 395 kts | 183° |
| 2026-04-19 14:05 | 51.59054 | -106.68838 | 20675 ft | 399 kts | 183° |
| 2026-04-19 14:05 | 51.56264 | -106.68783 | 21236 ft | 403 kts | 184° |
| 2026-04-19 14:06 | 51.53444 | -106.68727 | 21768 ft | 407 kts | 184° |
| 2026-04-19 14:06 | 51.50597 | -106.68670 | 22315 ft | 411 kts | 184° |
| 2026-04-19 14:06 | 51.47723 | -106.68612 | 22806 ft | 415 kts | 184° |
| 2026-04-19 14:06 | 51.44821 | -106.68555 | 23309 ft | 419 kts | 184° |
| 2026-04-19 14:07 | 51.41892 | -106.68497 | 23795 ft | 422 kts | 184° |
| 2026-04-19 14:07 | 51.38938 | -106.68438 | 24251 ft | 427 kts | 184° |
| 2026-04-19 14:07 | 51.35958 | -106.68379 | 24719 ft | 430 kts | 184° |
| 2026-04-19 14:07 | 51.32953 | -106.68319 | 25167 ft | 433 kts | 184° |
| 2026-04-19 14:08 | 51.29928 | -106.68260 | 25591 ft | 437 kts | 184° |
| 2026-04-19 14:08 | 51.26871 | -106.68199 | 26019 ft | 440 kts | 184° |
| 2026-04-19 14:08 | 51.23800 | -106.68139 | 26423 ft | 443 kts | 184° |
| 2026-04-19 14:08 | 51.20705 | -106.68078 | 26814 ft | 447 kts | 184° |
| 2026-04-19 14:09 | 51.17583 | -106.68017 | 27239 ft | 449 kts | 184° |
| 2026-04-19 14:09 | 51.14446 | -106.67955 | 27612 ft | 453 kts | 184° |
| 2026-04-19 14:09 | 51.11288 | -106.67893 | 27976 ft | 456 kts | 184° |
| 2026-04-19 14:09 | 51.08101 | -106.67831 | 28336 ft | 459 kts | 184° |
| 2026-04-19 14:10 | 51.04943 | -106.67769 | 28679 ft | 462 kts | 184° |
| 2026-04-19 14:10 | 51.01723 | -106.67707 | 29024 ft | 464 kts | 184° |
| 2026-04-19 14:10 | 50.98480 | -106.67644 | 29359 ft | 467 kts | 184° |
| 2026-04-19 14:10 | 50.95220 | -106.67579 | 29692 ft | 470 kts | 184° |
| 2026-04-19 14:11 | 50.91936 | -106.67516 | 30021 ft | 473 kts | 184° |
| 2026-04-19 14:11 | 50.88640 | -106.67452 | 30342 ft | 475 kts | 184° |
| 2026-04-19 14:11 | 50.85325 | -106.67388 | 30659 ft | 478 kts | 184° |
| 2026-04-19 14:11 | 50.81990 | -106.67323 | 30960 ft | 480 kts | 184° |
| 2026-04-19 14:12 | 50.78641 | -106.67259 | 31260 ft | 482 kts | 184° |
| 2026-04-19 14:12 | 50.75279 | -106.67193 | 31549 ft | 485 kts | 184° |
| 2026-04-19 14:12 | 50.71897 | -106.67128 | 31864 ft | 487 kts | 184° |
| 2026-04-19 14:12 | 50.68502 | -106.67063 | 32137 ft | 489 kts | 184° |
| 2026-04-19 14:13 | 50.65088 | -106.66997 | 32412 ft | 492 kts | 184° |
| 2026-04-19 14:13 | 50.61659 | -106.66931 | 32688 ft | 494 kts | 184° |
| 2026-04-19 14:13 | 50.58210 | -106.66865 | 32956 ft | 496 kts | 184° |
| 2026-04-19 14:13 | 50.54752 | -106.66799 | 33222 ft | 498 kts | 184° |
| 2026-04-19 14:14 | 50.51275 | -106.66732 | 33475 ft | 501 kts | 184° |
| 2026-04-19 14:14 | 50.47778 | -106.66666 | 33736 ft | 503 kts | 184° |
| 2026-04-19 14:14 | 50.44275 | -106.66599 | 33991 ft | 505 kts | 184° |
| 2026-04-19 14:14 | 50.40758 | -106.66532 | 34278 ft | 506 kts | 184° |
| 2026-04-19 14:15 | 50.37243 | -106.66465 | 34611 ft | 505 kts | 184° |
| 2026-04-19 14:15 | 50.33727 | -106.66398 | 34953 ft | 505 kts | 184° |
| 2026-04-19 14:15 | 50.30216 | -106.66331 | 35278 ft | 504 kts | 184° |
| 2026-04-19 14:15 | 50.26717 | -106.66264 | 35617 ft | 503 kts | 184° |
| 2026-04-19 14:16 | 50.23221 | -106.66198 | 35921 ft | 502 kts | 184° |
| 2026-04-19 14:16 | 50.19732 | -106.66132 | 36238 ft | 501 kts | 184° |
| 2026-04-19 14:16 | 50.16239 | -106.66065 | 36487 ft | 501 kts | 184° |
| 2026-04-19 14:16 | 50.12751 | -106.66001 | 36739 ft | 501 kts | 184° |
| 2026-04-19 14:17 | 50.09272 | -106.65934 | 37060 ft | 499 kts | 184° |
| 2026-04-19 14:17 | 50.05802 | -106.65870 | 37214 ft | 497 kts | 184° |
| 2026-04-19 14:17 | 50.02371 | -106.65805 | 37155 ft | 491 kts | 184° |
| 2026-04-19 14:18 | 49.95605 | -106.65680 | 37171 ft | 490 kts | 184° |
| 2026-04-19 14:18 | 49.88746 | -106.65550 | 37168 ft | 489 kts | 184° |
| 2026-04-19 14:19 | 49.81982 | -106.65425 | 37174 ft | 489 kts | 184° |
| 2026-04-19 14:19 | 49.75173 | -106.65299 | 37174 ft | 489 kts | 185° |
| 2026-04-19 14:20 | 49.68364 | -106.65173 | 37174 ft | 489 kts | 185° |
| 2026-04-19 14:20 | 49.61552 | -106.65048 | 37170 ft | 489 kts | 184° |
| 2026-04-19 14:21 | 49.54743 | -106.64922 | 37173 ft | 489 kts | 184° |
| 2026-04-19 14:21 | 49.47937 | -106.64798 | 37173 ft | 489 kts | 185° |
| 2026-04-19 14:22 | 49.41130 | -106.64674 | 37188 ft | 489 kts | 184° |
| 2026-04-19 14:22 | 49.34326 | -106.64550 | 37187 ft | 489 kts | 185° |
| 2026-04-19 14:23 | 49.27534 | -106.64426 | 37180 ft | 488 kts | 185° |
| 2026-04-19 14:23 | 49.20738 | -106.64303 | 37180 ft | 488 kts | 185° |
| 2026-04-19 14:24 | 49.13941 | -106.64180 | 37183 ft | 488 kts | 185° |
| 2026-04-19 14:24 | 49.07147 | -106.64057 | 37194 ft | 488 kts | 185° |
| 2026-04-19 14:25 | 49.00413 | -106.63936 | 37196 ft | 487 kts | 185° |
| 2026-04-19 14:25 | 48.93631 | -106.63815 | 37193 ft | 487 kts | 185° |
| 2026-04-19 14:26 | 48.86850 | -106.63694 | 37193 ft | 487 kts | 185° |
| 2026-04-19 14:26 | 48.80074 | -106.63572 | 37179 ft | 487 kts | 185° |
| 2026-04-19 14:27 | 48.73298 | -106.63452 | 37205 ft | 487 kts | 185° |
| 2026-04-19 14:27 | 48.66516 | -106.63331 | 37209 ft | 487 kts | 185° |
| 2026-04-19 14:28 | 48.59742 | -106.63212 | 37210 ft | 487 kts | 185° |
| 2026-04-19 14:28 | 48.52963 | -106.63092 | 37214 ft | 488 kts | 185° |
| 2026-04-19 14:29 | 48.46172 | -106.62973 | 37210 ft | 488 kts | 185° |
| 2026-04-19 14:29 | 48.39384 | -106.62854 | 37211 ft | 488 kts | 185° |
| 2026-04-19 14:30 | 48.32598 | -106.62735 | 37208 ft | 488 kts | 185° |
| 2026-04-19 14:30 | 48.25810 | -106.62617 | 37213 ft | 488 kts | 185° |
| 2026-04-19 14:31 | 48.19015 | -106.62272 | 37213 ft | 490 kts | 182° |
| 2026-04-19 14:31 | 48.12211 | -106.61742 | 37212 ft | 490 kts | 182° |
| 2026-04-19 14:32 | 48.05407 | -106.61237 | 37210 ft | 489 kts | 182° |
| 2026-04-19 14:32 | 47.98644 | -106.60736 | 37213 ft | 489 kts | 182° |
| 2026-04-19 14:33 | 47.91839 | -106.60236 | 37211 ft | 490 kts | 182° |
| 2026-04-19 14:33 | 47.85026 | -106.59736 | 37210 ft | 490 kts | 182° |
| 2026-04-19 14:34 | 47.78216 | -106.59238 | 37210 ft | 490 kts | 182° |
| 2026-04-19 14:34 | 47.71407 | -106.58740 | 37209 ft | 490 kts | 182° |
| 2026-04-19 14:35 | 47.61190 | -106.57996 | 37202 ft | 490 kts | 182° |
| 2026-04-19 14:35 | 47.54381 | -106.57502 | 37200 ft | 490 kts | 182° |
| 2026-04-19 14:36 | 47.47570 | -106.57009 | 37196 ft | 490 kts | 182° |
| 2026-04-19 14:36 | 47.40766 | -106.56518 | 37196 ft | 489 kts | 182° |
| 2026-04-19 14:37 | 47.33968 | -106.56028 | 37188 ft | 489 kts | 182° |
| 2026-04-19 14:37 | 47.27173 | -106.55540 | 37191 ft | 489 kts | 182° |
| 2026-04-19 14:38 | 47.20372 | -106.55053 | 37191 ft | 489 kts | 182° |
| 2026-04-19 14:38 | 47.13580 | -106.54567 | 37195 ft | 489 kts | 182° |
| 2026-04-19 14:39 | 47.06778 | -106.54083 | 37193 ft | 490 kts | 182° |
| 2026-04-19 14:39 | 47.00018 | -106.53603 | 37193 ft | 490 kts | 182° |
| 2026-04-19 14:40 | 46.93212 | -106.53120 | 37195 ft | 490 kts | 182° |
| 2026-04-19 14:40 | 46.86401 | -106.52638 | 37193 ft | 490 kts | 182° |
| 2026-04-19 14:41 | 46.79596 | -106.52158 | 37179 ft | 489 kts | 182° |
| 2026-04-19 14:41 | 46.72793 | -106.51679 | 37180 ft | 489 kts | 182° |
| 2026-04-19 14:42 | 46.65994 | -106.51202 | 37181 ft | 489 kts | 182° |
| 2026-04-19 14:42 | 46.59193 | -106.50725 | 37180 ft | 489 kts | 182° |
| 2026-04-19 14:43 | 46.52387 | -106.50250 | 37184 ft | 490 kts | 182° |
| 2026-04-19 14:43 | 46.45575 | -106.49776 | 37188 ft | 490 kts | 182° |
| 2026-04-19 14:44 | 46.38804 | -106.49305 | 37173 ft | 490 kts | 182° |
| 2026-04-19 14:44 | 46.31985 | -106.48833 | 37177 ft | 491 kts | 182° |
| 2026-04-19 14:45 | 46.25170 | -106.48361 | 37166 ft | 490 kts | 182° |
| 2026-04-19 14:45 | 46.18349 | -106.47891 | 37174 ft | 491 kts | 182° |
| 2026-04-19 14:46 | 46.11525 | -106.47421 | 37166 ft | 490 kts | 182° |
| 2026-04-19 14:46 | 46.04704 | -106.46953 | 37178 ft | 491 kts | 182° |
| 2026-04-19 14:47 | 45.99027 | -106.46565 | 37175 ft | 491 kts | 182° |
| 2026-04-19 14:47 | 45.92201 | -106.46098 | 37175 ft | 491 kts | 181° |
| 2026-04-19 14:48 | 45.85368 | -106.45633 | 37171 ft | 491 kts | 181° |
| 2026-04-19 14:48 | 45.78543 | -106.45168 | 37177 ft | 491 kts | 181° |
| 2026-04-19 14:49 | 45.71721 | -106.44706 | 37176 ft | 490 kts | 181° |
| 2026-04-19 14:49 | 45.64902 | -106.44244 | 37173 ft | 491 kts | 181° |
| 2026-04-19 14:50 | 45.58083 | -106.43784 | 37176 ft | 490 kts | 181° |
| 2026-04-19 14:50 | 45.51267 | -106.43325 | 37167 ft | 490 kts | 181° |
| 2026-04-19 14:51 | 45.44449 | -106.42867 | 37179 ft | 490 kts | 181° |
| 2026-04-19 14:51 | 45.37638 | -106.42411 | 37176 ft | 490 kts | 182° |
| 2026-04-19 14:52 | 45.30874 | -106.41959 | 37171 ft | 490 kts | 182° |
| 2026-04-19 14:52 | 45.24063 | -106.41504 | 37174 ft | 490 kts | 182° |
| 2026-04-19 14:53 | 45.17270 | -106.41053 | 37171 ft | 488 kts | 182° |
| 2026-04-19 14:53 | 45.10478 | -106.40602 | 37176 ft | 488 kts | 182° |
| 2026-04-19 14:54 | 45.03692 | -106.40153 | 37177 ft | 489 kts | 182° |
| 2026-04-19 14:54 | 44.96900 | -106.39704 | 37168 ft | 489 kts | 182° |
| 2026-04-19 14:55 | 44.90111 | -106.39256 | 37164 ft | 488 kts | 182° |
| 2026-04-19 14:55 | 44.83321 | -106.38810 | 37167 ft | 488 kts | 182° |
| 2026-04-19 14:56 | 44.76537 | -106.38365 | 37156 ft | 488 kts | 182° |
| 2026-04-19 14:56 | 44.69752 | -106.37922 | 37154 ft | 488 kts | 182° |
| 2026-04-19 14:57 | 44.62967 | -106.37478 | 37155 ft | 488 kts | 182° |
| 2026-04-19 14:57 | 44.56240 | -106.37041 | 37151 ft | 487 kts | 182° |
| 2026-04-19 14:58 | 44.49469 | -106.36601 | 37156 ft | 487 kts | 181° |
| 2026-04-19 14:58 | 44.42693 | -106.36161 | 37156 ft | 488 kts | 181° |
| 2026-04-19 14:59 | 44.35912 | -106.35723 | 37161 ft | 488 kts | 182° |
| 2026-04-19 14:59 | 44.29130 | -106.35285 | 37152 ft | 487 kts | 182° |
| 2026-04-19 15:00 | 44.22349 | -106.34848 | 37158 ft | 487 kts | 182° |
| 2026-04-19 15:00 | 44.15585 | -106.34414 | 37158 ft | 487 kts | 182° |
| 2026-04-19 15:01 | 44.08816 | -106.33981 | 37154 ft | 486 kts | 182° |
| 2026-04-19 15:01 | 44.02051 | -106.33549 | 37159 ft | 487 kts | 182° |
| 2026-04-19 15:02 | 43.95284 | -106.33117 | 37165 ft | 487 kts | 182° |
| 2026-04-19 15:02 | 43.88513 | -106.32686 | 37168 ft | 487 kts | 182° |
| 2026-04-19 15:03 | 43.81783 | -106.32258 | 37165 ft | 487 kts | 182° |
| 2026-04-19 15:03 | 43.75017 | -106.31830 | 37175 ft | 487 kts | 182° |
| 2026-04-19 15:04 | 43.68259 | -106.31403 | 37176 ft | 486 kts | 182° |
| 2026-04-19 15:04 | 43.61528 | -106.30978 | 37182 ft | 481 kts | 182° |
| 2026-04-19 15:05 | 43.54864 | -106.30558 | 37185 ft | 479 kts | 182° |
| 2026-04-19 15:05 | 43.48204 | -106.30140 | 37185 ft | 480 kts | 182° |
| 2026-04-19 15:06 | 43.41537 | -106.29722 | 37192 ft | 479 kts | 183° |
| 2026-04-19 15:06 | 43.34883 | -106.29306 | 37194 ft | 479 kts | 183° |
| 2026-04-19 15:07 | 43.28229 | -106.28891 | 37186 ft | 479 kts | 183° |
| 2026-04-19 15:07 | 43.21624 | -106.28480 | 37199 ft | 478 kts | 183° |
| 2026-04-19 15:08 | 43.14980 | -106.28067 | 37203 ft | 478 kts | 183° |
| 2026-04-19 15:08 | 43.08327 | -106.27604 | 37205 ft | 479 kts | 181° |
| 2026-04-19 15:09 | 43.01667 | -106.26996 | 37202 ft | 479 kts | 181° |
| 2026-04-19 15:09 | 42.95022 | -106.26407 | 37201 ft | 478 kts | 181° |
| 2026-04-19 15:10 | 42.88381 | -106.25821 | 37200 ft | 478 kts | 181° |
| 2026-04-19 15:10 | 42.81741 | -106.25236 | 37201 ft | 478 kts | 181° |
| 2026-04-19 15:11 | 42.75099 | -106.24652 | 37204 ft | 478 kts | 181° |
| 2026-04-19 15:11 | 42.68461 | -106.24070 | 37210 ft | 478 kts | 181° |
| 2026-04-19 15:12 | 42.61817 | -106.23488 | 37199 ft | 478 kts | 181° |
| 2026-04-19 15:12 | 42.55176 | -106.22909 | 37208 ft | 478 kts | 181° |
| 2026-04-19 15:13 | 42.48527 | -106.22330 | 37210 ft | 479 kts | 181° |
| 2026-04-19 15:13 | 42.41912 | -106.21754 | 37220 ft | 480 kts | 181° |
| 2026-04-19 15:14 | 42.35256 | -106.21176 | 37220 ft | 479 kts | 181° |
| 2026-04-19 15:14 | 42.28593 | -106.20599 | 37223 ft | 480 kts | 181° |
| 2026-04-19 15:15 | 42.21932 | -106.20024 | 37224 ft | 479 kts | 181° |
| 2026-04-19 15:15 | 42.15271 | -106.19449 | 37237 ft | 479 kts | 181° |
| 2026-04-19 15:16 | 42.08613 | -106.18877 | 37236 ft | 480 kts | 181° |
| 2026-04-19 15:16 | 42.01951 | -106.18305 | 37251 ft | 480 kts | 182° |
| 2026-04-19 15:17 | 41.95335 | -106.17738 | 37247 ft | 480 kts | 182° |
| 2026-04-19 15:17 | 41.88674 | -106.17168 | 37257 ft | 479 kts | 181° |
| 2026-04-19 15:18 | 41.82009 | -106.16600 | 37260 ft | 480 kts | 181° |
| 2026-04-19 15:18 | 41.75353 | -106.16033 | 37257 ft | 479 kts | 181° |
| 2026-04-19 15:19 | 41.68698 | -106.15467 | 37271 ft | 479 kts | 181° |
| 2026-04-19 15:19 | 41.62046 | -106.14903 | 37265 ft | 479 kts | 181° |
| 2026-04-19 15:20 | 41.55400 | -106.14341 | 37267 ft | 479 kts | 181° |
| 2026-04-19 15:20 | 41.48750 | -106.13780 | 37269 ft | 479 kts | 181° |
| 2026-04-19 15:21 | 41.42103 | -106.13219 | 37265 ft | 478 kts | 181° |
| 2026-04-19 15:21 | 41.35468 | -106.12662 | 37284 ft | 478 kts | 181° |
| 2026-04-19 15:22 | 41.28840 | -106.12104 | 37287 ft | 477 kts | 181° |
| 2026-04-19 15:22 | 41.22219 | -106.11551 | 37292 ft | 477 kts | 181° |
| 2026-04-19 15:23 | 41.15597 | -106.10997 | 37304 ft | 477 kts | 181° |
| 2026-04-19 15:23 | 41.08988 | -106.10446 | 37304 ft | 476 kts | 181° |
| 2026-04-19 15:24 | 41.02420 | -106.09899 | 37308 ft | 476 kts | 181° |
| 2026-04-19 15:24 | 40.95812 | -106.09350 | 37317 ft | 476 kts | 181° |
| 2026-04-19 15:25 | 40.89215 | -106.08803 | 37323 ft | 475 kts | 181° |
| 2026-04-19 15:25 | 40.82617 | -106.08256 | 37324 ft | 475 kts | 181° |
| 2026-04-19 15:26 | 40.76027 | -106.07713 | 37332 ft | 474 kts | 181° |
| 2026-04-19 15:26 | 40.69434 | -106.07170 | 37330 ft | 474 kts | 181° |
| 2026-04-19 15:27 | 40.62847 | -106.06628 | 37330 ft | 474 kts | 181° |
| 2026-04-19 15:27 | 40.56257 | -106.06087 | 37339 ft | 474 kts | 181° |
| 2026-04-19 15:28 | 40.49670 | -106.05547 | 37350 ft | 475 kts | 181° |
| 2026-04-19 15:28 | 40.43076 | -106.05007 | 37350 ft | 474 kts | 181° |
| 2026-04-19 15:29 | 40.36484 | -106.04470 | 37359 ft | 475 kts | 181° |
| 2026-04-19 15:29 | 40.29893 | -106.03933 | 37374 ft | 475 kts | 181° |
| 2026-04-19 15:30 | 40.23291 | -106.03396 | 37373 ft | 475 kts | 181° |
| 2026-04-19 15:30 | 40.16738 | -106.02864 | 37382 ft | 475 kts | 181° |
| 2026-04-19 15:31 | 40.10135 | -106.02330 | 37384 ft | 475 kts | 181° |
| 2026-04-19 15:31 | 40.03529 | -106.01796 | 37392 ft | 476 kts | 181° |
| 2026-04-19 15:32 | 39.96925 | -106.01263 | 37410 ft | 475 kts | 181° |
| 2026-04-19 15:32 | 39.90322 | -106.00731 | 37380 ft | 475 kts | 181° |
| 2026-04-19 15:33 | 39.83724 | -106.00201 | 37382 ft | 475 kts | 181° |
| 2026-04-19 15:33 | 39.77133 | -105.99672 | 37380 ft | 475 kts | 182° |
| 2026-04-19 15:34 | 39.70533 | -105.99145 | 37370 ft | 475 kts | 182° |
| 2026-04-19 15:34 | 39.63944 | -105.98618 | 37382 ft | 474 kts | 182° |
| 2026-04-19 15:35 | 39.57356 | -105.98093 | 37395 ft | 474 kts | 181° |
| 2026-04-19 15:35 | 39.50764 | -105.97568 | 37374 ft | 473 kts | 181° |
| 2026-04-19 15:36 | 39.44194 | -105.97046 | 37383 ft | 473 kts | 182° |
| 2026-04-19 15:36 | 39.37626 | -105.96525 | 37385 ft | 472 kts | 182° |
| 2026-04-19 15:37 | 39.32184 | -105.96095 | 37395 ft | 472 kts | 182° |
| 2026-04-19 15:37 | 39.25634 | -105.95577 | 37388 ft | 470 kts | 182° |
| 2026-04-19 15:38 | 39.19104 | -105.95063 | 37391 ft | 469 kts | 182° |
| 2026-04-19 15:38 | 39.12596 | -105.94550 | 37398 ft | 468 kts | 182° |
| 2026-04-19 15:39 | 39.06106 | -105.94040 | 37394 ft | 467 kts | 182° |
| 2026-04-19 15:39 | 38.99619 | -105.93532 | 37389 ft | 466 kts | 182° |
| 2026-04-19 15:40 | 38.93156 | -105.93025 | 37382 ft | 465 kts | 182° |
| 2026-04-19 15:40 | 38.86709 | -105.92521 | 37378 ft | 463 kts | 182° |
| 2026-04-19 15:41 | 38.80279 | -105.92020 | 37381 ft | 462 kts | 182° |
| 2026-04-19 15:41 | 38.73859 | -105.91520 | 37362 ft | 461 kts | 182° |
| 2026-04-19 15:42 | 38.67467 | -105.91023 | 37359 ft | 460 kts | 182° |
| 2026-04-19 15:42 | 38.61082 | -105.90528 | 37350 ft | 459 kts | 182° |
| 2026-04-19 15:43 | 38.54712 | -105.90035 | 37344 ft | 458 kts | 182° |
| 2026-04-19 15:44 | 38.45186 | -105.89298 | 37367 ft | 457 kts | 182° |
| 2026-04-19 15:44 | 38.38851 | -105.88810 | 37349 ft | 455 kts | 182° |
| 2026-04-19 15:45 | 38.32532 | -105.88324 | 37357 ft | 455 kts | 182° |
| 2026-04-19 15:45 | 38.26264 | -105.87841 | 37368 ft | 454 kts | 182° |
| 2026-04-19 15:46 | 38.19962 | -105.87358 | 37379 ft | 454 kts | 182° |
| 2026-04-19 15:46 | 38.13661 | -105.86876 | 37386 ft | 453 kts | 182° |
| 2026-04-19 15:47 | 38.07372 | -105.86395 | 37386 ft | 452 kts | 182° |
| 2026-04-19 15:47 | 38.01089 | -105.85915 | 37403 ft | 453 kts | 182° |
| 2026-04-19 15:48 | 37.94819 | -105.85039 | 37419 ft | 459 kts | 171° |
| 2026-04-19 15:48 | 37.88590 | -105.83169 | 37401 ft | 459 kts | 172° |
| 2026-04-19 15:49 | 37.82355 | -105.81326 | 37402 ft | 460 kts | 172° |
| 2026-04-19 15:49 | 37.76123 | -105.79485 | 37404 ft | 460 kts | 172° |
| 2026-04-19 15:50 | 37.69881 | -105.77644 | 37403 ft | 461 kts | 172° |
| 2026-04-19 15:50 | 37.63637 | -105.75805 | 37406 ft | 461 kts | 172° |
| 2026-04-19 15:51 | 37.57389 | -105.73969 | 37401 ft | 461 kts | 172° |
| 2026-04-19 15:51 | 37.51181 | -105.72147 | 37399 ft | 461 kts | 172° |
| 2026-04-19 15:52 | 37.44932 | -105.70317 | 37393 ft | 461 kts | 172° |
| 2026-04-19 15:52 | 37.38680 | -105.68489 | 37391 ft | 461 kts | 172° |
| 2026-04-19 15:53 | 37.32430 | -105.66665 | 37405 ft | 461 kts | 172° |
| 2026-04-19 15:53 | 37.26180 | -105.64843 | 37407 ft | 461 kts | 172° |
| 2026-04-19 15:54 | 37.19928 | -105.63025 | 37409 ft | 461 kts | 172° |
| 2026-04-19 15:54 | 37.13678 | -105.61209 | 37420 ft | 461 kts | 172° |
| 2026-04-19 15:55 | 37.07427 | -105.59397 | 37422 ft | 461 kts | 172° |
| 2026-04-19 15:55 | 37.01208 | -105.57596 | 37423 ft | 461 kts | 172° |
| 2026-04-19 15:56 | 36.94954 | -105.55789 | 37423 ft | 461 kts | 172° |
| 2026-04-19 15:56 | 36.88710 | -105.53988 | 37417 ft | 460 kts | 172° |
| 2026-04-19 15:57 | 36.82465 | -105.52190 | 37413 ft | 460 kts | 172° |
| 2026-04-19 15:57 | 36.76224 | -105.50395 | 37416 ft | 460 kts | 173° |
| 2026-04-19 15:58 | 36.69987 | -105.48605 | 37410 ft | 460 kts | 172° |
| 2026-04-19 15:58 | 36.63753 | -105.46819 | 37417 ft | 459 kts | 172° |
| 2026-04-19 15:59 | 36.57523 | -105.45036 | 37419 ft | 459 kts | 172° |
| 2026-04-19 15:59 | 36.51294 | -105.43258 | 37423 ft | 459 kts | 172° |
| 2026-04-19 16:00 | 36.45061 | -105.41480 | 37421 ft | 459 kts | 172° |
| 2026-04-19 16:00 | 36.38878 | -105.39720 | 37422 ft | 459 kts | 172° |
| 2026-04-19 16:01 | 36.32649 | -105.37950 | 37430 ft | 459 kts | 172° |
| 2026-04-19 16:01 | 36.26427 | -105.36185 | 37436 ft | 459 kts | 172° |
| 2026-04-19 16:02 | 36.20206 | -105.34422 | 37424 ft | 458 kts | 172° |
| 2026-04-19 16:02 | 36.13981 | -105.32662 | 37422 ft | 459 kts | 172° |
| 2026-04-19 16:03 | 36.07763 | -105.30906 | 37410 ft | 459 kts | 172° |
| 2026-04-19 16:03 | 36.01540 | -105.29152 | 37419 ft | 459 kts | 172° |
| 2026-04-19 16:04 | 35.95317 | -105.27401 | 37409 ft | 458 kts | 173° |
| 2026-04-19 16:04 | 35.89118 | -105.25659 | 37398 ft | 456 kts | 173° |
| 2026-04-19 16:05 | 35.82921 | -105.23921 | 37392 ft | 456 kts | 173° |
| 2026-04-19 16:05 | 35.76730 | -105.22187 | 37397 ft | 456 kts | 173° |
| 2026-04-19 16:06 | 35.70544 | -105.20457 | 37395 ft | 456 kts | 173° |
| 2026-04-19 16:06 | 35.64358 | -105.18730 | 37396 ft | 456 kts | 173° |
| 2026-04-19 16:07 | 35.58171 | -105.17005 | 37397 ft | 456 kts | 173° |
| 2026-04-19 16:07 | 35.51983 | -105.15283 | 37394 ft | 455 kts | 173° |
| 2026-04-19 16:08 | 35.45838 | -105.13576 | 37394 ft | 455 kts | 173° |
| 2026-04-19 16:08 | 35.39651 | -105.11860 | 37387 ft | 455 kts | 173° |
| 2026-04-19 16:09 | 35.33476 | -105.10149 | 37397 ft | 455 kts | 173° |
| 2026-04-19 16:09 | 35.27301 | -105.08440 | 37392 ft | 454 kts | 173° |
| 2026-04-19 16:10 | 35.21136 | -105.06737 | 37395 ft | 454 kts | 174° |
| 2026-04-19 16:10 | 35.14967 | -105.05036 | 37394 ft | 454 kts | 174° |
| 2026-04-19 16:11 | 35.08777 | -105.03751 | 37400 ft | 446 kts | 182° |
| 2026-04-19 16:11 | 35.02628 | -105.03070 | 37392 ft | 447 kts | 182° |
| 2026-04-19 16:12 | 34.96431 | -105.02398 | 37394 ft | 447 kts | 182° |
| 2026-04-19 16:12 | 34.90238 | -105.01731 | 37395 ft | 447 kts | 182° |
| 2026-04-19 16:13 | 34.84048 | -105.01063 | 37392 ft | 446 kts | 182° |
| 2026-04-19 16:13 | 34.77869 | -105.00398 | 37390 ft | 446 kts | 182° |
| 2026-04-19 16:14 | 34.71680 | -104.99733 | 37686 ft | 447 kts | 182° |
| 2026-04-19 16:14 | 34.68578 | -104.99400 | 37919 ft | 447 kts | 182° |
| 2026-04-19 16:14 | 34.65476 | -104.99067 | 38159 ft | 447 kts | 182° |
| 2026-04-19 16:14 | 34.62376 | -104.98735 | 38391 ft | 447 kts | 182° |
| 2026-04-19 16:15 | 34.59273 | -104.98403 | 38595 ft | 448 kts | 182° |
| 2026-04-19 16:15 | 34.56168 | -104.98070 | 38794 ft | 449 kts | 182° |
| 2026-04-19 16:15 | 34.53055 | -104.97738 | 38982 ft | 449 kts | 182° |
| 2026-04-19 16:15 | 34.49939 | -104.97405 | 39169 ft | 450 kts | 182° |
| 2026-04-19 16:16 | 34.46824 | -104.97072 | 39336 ft | 450 kts | 183° |
| 2026-04-19 16:16 | 34.40570 | -104.96406 | 39407 ft | 452 kts | 182° |
| 2026-04-19 16:17 | 34.34308 | -104.95738 | 39408 ft | 451 kts | 182° |
| 2026-04-19 16:17 | 34.28056 | -104.95074 | 39402 ft | 450 kts | 182° |
| 2026-04-19 16:18 | 34.21815 | -104.94411 | 39407 ft | 451 kts | 183° |
| 2026-04-19 16:18 | 34.15608 | -104.93760 | 39400 ft | 449 kts | 185° |
| 2026-04-19 16:18 | 34.12531 | -104.93852 | 39390 ft | 435 kts | 197° |
| 2026-04-19 16:19 | 34.09555 | -104.94443 | 39413 ft | 436 kts | 195° |
| 2026-04-19 16:19 | 34.03520 | -104.95356 | 39420 ft | 438 kts | 195° |
| 2026-04-19 16:20 | 33.97468 | -104.96224 | 39414 ft | 438 kts | 195° |
| 2026-04-19 16:20 | 33.91445 | -104.97080 | 39409 ft | 434 kts | 195° |
| 2026-04-19 16:21 | 33.85460 | -104.97929 | 39415 ft | 434 kts | 195° |
| 2026-04-19 16:21 | 33.79464 | -104.98778 | 39413 ft | 433 kts | 195° |
| 2026-04-19 16:22 | 33.73475 | -104.99625 | 39413 ft | 433 kts | 195° |
| 2026-04-19 16:22 | 33.67484 | -105.00471 | 39413 ft | 434 kts | 195° |
| 2026-04-19 16:23 | 33.61491 | -105.01316 | 39412 ft | 433 kts | 195° |
| 2026-04-19 16:23 | 33.55505 | -105.02159 | 39424 ft | 433 kts | 195° |
| 2026-04-19 16:24 | 33.49530 | -105.03000 | 39417 ft | 432 kts | 195° |
| 2026-04-19 16:24 | 33.43556 | -105.03839 | 39425 ft | 432 kts | 194° |
| 2026-04-19 16:25 | 33.37610 | -105.04672 | 39411 ft | 432 kts | 194° |
| 2026-04-19 16:25 | 33.31634 | -105.05509 | 39413 ft | 433 kts | 194° |
| 2026-04-19 16:26 | 33.25655 | -105.06346 | 39413 ft | 432 kts | 194° |
| 2026-04-19 16:26 | 33.19687 | -105.07179 | 39416 ft | 432 kts | 194° |
| 2026-04-19 16:27 | 33.13716 | -105.08012 | 39411 ft | 431 kts | 194° |
| 2026-04-19 16:27 | 33.08757 | -105.08704 | 39413 ft | 431 kts | 194° |
| 2026-04-19 16:28 | 33.02802 | -105.09531 | 39413 ft | 430 kts | 194° |
| 2026-04-19 16:28 | 32.96850 | -105.10359 | 39413 ft | 430 kts | 195° |
| 2026-04-19 16:29 | 32.90901 | -105.11184 | 39413 ft | 430 kts | 195° |
| 2026-04-19 16:29 | 32.84963 | -105.12006 | 39413 ft | 429 kts | 195° |
| 2026-04-19 16:30 | 32.79029 | -105.12828 | 39419 ft | 429 kts | 195° |
| 2026-04-19 16:30 | 32.73132 | -105.13643 | 39418 ft | 428 kts | 195° |
| 2026-04-19 16:31 | 32.67211 | -105.14460 | 39410 ft | 428 kts | 195° |
| 2026-04-19 16:31 | 32.61288 | -105.15276 | 39412 ft | 428 kts | 195° |
| 2026-04-19 16:32 | 32.55370 | -105.16091 | 39414 ft | 428 kts | 195° |
| 2026-04-19 16:32 | 32.49458 | -105.16904 | 39401 ft | 427 kts | 195° |
| 2026-04-19 16:33 | 32.43561 | -105.17713 | 39405 ft | 427 kts | 195° |
| 2026-04-19 16:33 | 32.37656 | -105.18522 | 39392 ft | 427 kts | 195° |
| 2026-04-19 16:34 | 32.31755 | -105.19330 | 39395 ft | 427 kts | 195° |
| 2026-04-19 16:34 | 32.25874 | -105.20134 | 39387 ft | 424 kts | 195° |
| 2026-04-19 16:35 | 32.20006 | -105.20936 | 39387 ft | 425 kts | 195° |
| 2026-04-19 16:35 | 32.14139 | -105.21736 | 39383 ft | 424 kts | 195° |
| 2026-04-19 16:36 | 32.08284 | -105.22533 | 39378 ft | 424 kts | 195° |
| 2026-04-19 16:36 | 32.02464 | -105.23325 | 39377 ft | 424 kts | 195° |
| 2026-04-19 16:37 | 31.96606 | -105.24121 | 39382 ft | 423 kts | 195° |
| 2026-04-19 16:37 | 31.90776 | -105.24912 | 39372 ft | 420 kts | 195° |
| 2026-04-19 16:38 | 31.84957 | -105.25700 | 39378 ft | 421 kts | 195° |
| 2026-04-19 16:38 | 31.79143 | -105.26487 | 39368 ft | 420 kts | 195° |
| 2026-04-19 16:39 | 31.73336 | -105.27272 | 39359 ft | 419 kts | 195° |
| 2026-04-19 16:39 | 31.67533 | -105.28055 | 39358 ft | 420 kts | 195° |
| 2026-04-19 16:40 | 31.61730 | -105.28838 | 39357 ft | 420 kts | 195° |
| 2026-04-19 16:40 | 31.55930 | -105.29619 | 39364 ft | 420 kts | 195° |
| 2026-04-19 16:41 | 31.50133 | -105.30399 | 39366 ft | 419 kts | 195° |
| 2026-04-19 16:41 | 31.44333 | -105.31177 | 39368 ft | 419 kts | 195° |
| 2026-04-19 16:42 | 31.38535 | -105.31955 | 39374 ft | 419 kts | 195° |
| 2026-04-19 16:42 | 31.32732 | -105.32733 | 39376 ft | 419 kts | 195° |
| 2026-04-19 16:43 | 31.26935 | -105.33508 | 39374 ft | 419 kts | 195° |
| 2026-04-19 16:43 | 31.21147 | -105.34282 | 39376 ft | 419 kts | 195° |
| 2026-04-19 16:44 | 31.15398 | -105.35050 | 39375 ft | 418 kts | 195° |
| 2026-04-19 16:44 | 31.09624 | -105.35820 | 39382 ft | 418 kts | 195° |
| 2026-04-19 16:45 | 31.03844 | -105.36590 | 39374 ft | 418 kts | 195° |
| 2026-04-19 16:45 | 30.98072 | -105.37357 | 39362 ft | 417 kts | 195° |
| 2026-04-19 16:46 | 30.92294 | -105.38125 | 39391 ft | 418 kts | 195° |
| 2026-04-19 16:46 | 30.86525 | -105.38889 | 39386 ft | 418 kts | 195° |
| 2026-04-19 16:47 | 30.80651 | -105.39116 | 39391 ft | 423 kts | 190° |
| 2026-04-19 16:47 | 30.74767 | -105.39190 | 39392 ft | 423 kts | 190° |
| 2026-04-19 16:48 | 30.68881 | -105.39251 | 39386 ft | 423 kts | 190° |
| 2026-04-19 16:48 | 30.62992 | -105.39312 | 39370 ft | 423 kts | 190° |
| 2026-04-19 16:49 | 30.57102 | -105.39372 | 39382 ft | 424 kts | 190° |
| 2026-04-19 16:49 | 30.51210 | -105.39432 | 39372 ft | 423 kts | 190° |
| 2026-04-19 16:50 | 30.45324 | -105.39493 | 39370 ft | 422 kts | 190° |
| 2026-04-19 16:50 | 30.39446 | -105.39553 | 39367 ft | 422 kts | 190° |
| 2026-04-19 16:51 | 30.33613 | -105.39613 | 39366 ft | 422 kts | 190° |
| 2026-04-19 16:51 | 30.27744 | -105.39673 | 39367 ft | 422 kts | 190° |
| 2026-04-19 16:52 | 30.21870 | -105.39733 | 39360 ft | 422 kts | 190° |
| 2026-04-19 16:52 | 30.16003 | -105.39792 | 39363 ft | 422 kts | 190° |
| 2026-04-19 16:53 | 30.10128 | -105.39852 | 39367 ft | 422 kts | 190° |
| 2026-04-19 16:53 | 30.04254 | -105.39912 | 39357 ft | 422 kts | 190° |
| 2026-04-19 16:54 | 29.98384 | -105.39971 | 39358 ft | 422 kts | 190° |
| 2026-04-19 16:54 | 29.92516 | -105.40030 | 39360 ft | 421 kts | 189° |
| 2026-04-19 16:55 | 29.86666 | -105.40090 | 39357 ft | 420 kts | 189° |
| 2026-04-19 16:55 | 29.77898 | -105.40179 | 39356 ft | 420 kts | 189° |
| 2026-04-19 16:56 | 29.72086 | -105.40237 | 39353 ft | 420 kts | 189° |
| 2026-04-19 16:56 | 29.66196 | -105.40297 | 39354 ft | 420 kts | 189° |
| 2026-04-19 16:57 | 29.60389 | -105.40355 | 39357 ft | 421 kts | 189° |
| 2026-04-19 16:57 | 29.54543 | -105.40414 | 39341 ft | 420 kts | 190° |
| 2026-04-19 16:58 | 29.48698 | -105.40472 | 39325 ft | 420 kts | 190° |
| 2026-04-19 16:58 | 29.42860 | -105.40531 | 39340 ft | 419 kts | 190° |
| 2026-04-19 16:59 | 29.37022 | -105.40589 | 39343 ft | 420 kts | 189° |
| 2026-04-19 16:59 | 29.31188 | -105.40648 | 39333 ft | 419 kts | 189° |
| 2026-04-19 17:00 | 29.25356 | -105.40706 | 39352 ft | 419 kts | 189° |
| 2026-04-19 17:00 | 29.19523 | -105.40764 | 39338 ft | 419 kts | 189° |
| 2026-04-19 17:01 | 29.13694 | -105.40823 | 39346 ft | 419 kts | 189° |
| 2026-04-19 17:01 | 29.07858 | -105.40881 | 39333 ft | 418 kts | 189° |
| 2026-04-19 17:02 | 29.02042 | -105.40939 | 39342 ft | 418 kts | 189° |
| 2026-04-19 17:02 | 28.96229 | -105.40997 | 39329 ft | 418 kts | 189° |
| 2026-04-19 17:03 | 28.90446 | -105.41054 | 39342 ft | 418 kts | 189° |
| 2026-04-19 17:03 | 28.84631 | -105.41112 | 39326 ft | 418 kts | 189° |
| 2026-04-19 17:04 | 28.78816 | -105.41169 | 39351 ft | 417 kts | 189° |
| 2026-04-19 17:04 | 28.73016 | -105.41226 | 39339 ft | 416 kts | 189° |
| 2026-04-19 17:05 | 28.67211 | -105.41284 | 39345 ft | 417 kts | 189° |
| 2026-04-19 17:05 | 28.61406 | -105.41341 | 39342 ft | 417 kts | 189° |
| 2026-04-19 17:06 | 28.55595 | -105.41399 | 39345 ft | 417 kts | 189° |
| 2026-04-19 17:06 | 28.49786 | -105.41456 | 39335 ft | 418 kts | 189° |
| 2026-04-19 17:07 | 28.43945 | -105.41182 | 39341 ft | 428 kts | 180° |
| 2026-04-19 17:07 | 28.38064 | -105.40368 | 39323 ft | 424 kts | 183° |
| 2026-04-19 17:08 | 28.32233 | -105.39661 | 39333 ft | 424 kts | 183° |
| 2026-04-19 17:08 | 28.26369 | -105.38963 | 39337 ft | 424 kts | 183° |
| 2026-04-19 17:09 | 28.20496 | -105.38265 | 39329 ft | 424 kts | 183° |
| 2026-04-19 17:09 | 28.14626 | -105.37568 | 39328 ft | 424 kts | 183° |
| 2026-04-19 17:10 | 28.08756 | -105.36872 | 39333 ft | 424 kts | 183° |
| 2026-04-19 17:10 | 28.02873 | -105.36175 | 39330 ft | 425 kts | 183° |
| 2026-04-19 17:11 | 27.96996 | -105.35480 | 39331 ft | 425 kts | 183° |
| 2026-04-19 17:11 | 27.91129 | -105.34787 | 39327 ft | 423 kts | 183° |
| 2026-04-19 17:12 | 27.85260 | -105.34095 | 39329 ft | 424 kts | 183° |
| 2026-04-19 17:12 | 27.79388 | -105.33402 | 39327 ft | 424 kts | 183° |
| 2026-04-19 17:13 | 27.73522 | -105.32711 | 39327 ft | 424 kts | 183° |
| 2026-04-19 17:13 | 27.67696 | -105.32026 | 39313 ft | 424 kts | 183° |
| 2026-04-19 17:14 | 27.61840 | -105.31338 | 39309 ft | 424 kts | 183° |
| 2026-04-19 17:14 | 27.55976 | -105.30649 | 39304 ft | 423 kts | 183° |
| 2026-04-19 17:15 | 27.50116 | -105.29963 | 39304 ft | 423 kts | 183° |
| 2026-04-19 17:15 | 27.44253 | -105.29275 | 39298 ft | 424 kts | 183° |
| 2026-04-19 17:16 | 27.38386 | -105.28589 | 39291 ft | 423 kts | 183° |
| 2026-04-19 17:16 | 27.32535 | -105.27905 | 39287 ft | 423 kts | 183° |
| 2026-04-19 17:17 | 27.26690 | -105.27223 | 39291 ft | 423 kts | 183° |
| 2026-04-19 17:17 | 27.21820 | -105.26654 | 39291 ft | 423 kts | 183° |
| 2026-04-19 17:18 | 27.15970 | -105.25973 | 39274 ft | 422 kts | 183° |
| 2026-04-19 17:18 | 27.10121 | -105.25292 | 39282 ft | 423 kts | 182° |
| 2026-04-19 17:19 | 27.04267 | -105.24611 | 39268 ft | 423 kts | 182° |
| 2026-04-19 17:19 | 26.98415 | -105.23931 | 39266 ft | 423 kts | 182° |
| 2026-04-19 17:20 | 26.92566 | -105.23252 | 39258 ft | 422 kts | 182° |
| 2026-04-19 17:20 | 26.86753 | -105.22578 | 39257 ft | 423 kts | 182° |
| 2026-04-19 17:21 | 26.80894 | -105.21900 | 39253 ft | 422 kts | 182° |
| 2026-04-19 17:21 | 26.75044 | -105.21223 | 39248 ft | 423 kts | 182° |
| 2026-04-19 17:22 | 26.69191 | -105.20547 | 39248 ft | 423 kts | 182° |
| 2026-04-19 17:22 | 26.63337 | -105.19870 | 39243 ft | 422 kts | 182° |
| 2026-04-19 17:23 | 26.57482 | -105.19196 | 39242 ft | 423 kts | 182° |
| 2026-04-19 17:23 | 26.51626 | -105.18521 | 39242 ft | 423 kts | 182° |
| 2026-04-19 17:24 | 26.45774 | -105.17847 | 39235 ft | 423 kts | 182° |
| 2026-04-19 17:24 | 26.39920 | -105.17174 | 39233 ft | 423 kts | 182° |
| 2026-04-19 17:25 | 26.34055 | -105.16510 | 39174 ft | 424 kts | 182° |
| 2026-04-19 17:25 | 26.28198 | -105.15833 | 39237 ft | 424 kts | 182° |
| 2026-04-19 17:26 | 26.22378 | -105.15162 | 39218 ft | 423 kts | 182° |
| 2026-04-19 17:26 | 26.16519 | -105.14491 | 39222 ft | 423 kts | 182° |
| 2026-04-19 17:27 | 26.10658 | -105.13820 | 39219 ft | 423 kts | 182° |
| 2026-04-19 17:27 | 26.04800 | -105.13151 | 39222 ft | 423 kts | 182° |
| 2026-04-19 17:28 | 25.98941 | -105.12482 | 39212 ft | 423 kts | 182° |
| 2026-04-19 17:28 | 25.93082 | -105.11814 | 39217 ft | 423 kts | 182° |
| 2026-04-19 17:29 | 25.87235 | -105.11147 | 39210 ft | 422 kts | 182° |
| 2026-04-19 17:29 | 25.81385 | -105.10481 | 39207 ft | 422 kts | 182° |
| 2026-04-19 17:30 | 25.75532 | -105.09816 | 39208 ft | 423 kts | 182° |
| 2026-04-19 17:30 | 25.69677 | -105.09151 | 39215 ft | 423 kts | 182° |
| 2026-04-19 17:31 | 25.63861 | -105.08490 | 39205 ft | 423 kts | 182° |
| 2026-04-19 17:31 | 25.58014 | -105.07828 | 39221 ft | 422 kts | 182° |
| 2026-04-19 17:32 | 25.52172 | -105.07166 | 39230 ft | 422 kts | 182° |
| 2026-04-19 17:32 | 25.46333 | -105.06505 | 39219 ft | 422 kts | 182° |
| 2026-04-19 17:33 | 25.40502 | -105.05846 | 39236 ft | 421 kts | 182° |
| 2026-04-19 17:33 | 25.34667 | -105.05188 | 39230 ft | 421 kts | 182° |
| 2026-04-19 17:34 | 25.28834 | -105.04529 | 39234 ft | 421 kts | 182° |
| 2026-04-19 17:34 | 25.23000 | -105.03872 | 39228 ft | 421 kts | 182° |
| 2026-04-19 17:35 | 25.17181 | -105.03216 | 39231 ft | 420 kts | 182° |
| 2026-04-19 17:35 | 25.11362 | -105.02562 | 39240 ft | 421 kts | 182° |
| 2026-04-19 17:36 | 25.05537 | -105.01907 | 39248 ft | 420 kts | 182° |
| 2026-04-19 17:36 | 24.99719 | -105.01254 | 39238 ft | 420 kts | 182° |
| 2026-04-19 17:37 | 24.93939 | -105.00606 | 39238 ft | 421 kts | 182° |
| 2026-04-19 17:37 | 24.88120 | -104.99953 | 39239 ft | 420 kts | 182° |
| 2026-04-19 17:38 | 24.82308 | -104.99302 | 39238 ft | 420 kts | 182° |
| 2026-04-19 17:38 | 24.76492 | -104.98651 | 39216 ft | 420 kts | 182° |
| 2026-04-19 17:39 | 24.70687 | -104.98004 | 39229 ft | 419 kts | 182° |
| 2026-04-19 17:39 | 24.64878 | -104.97355 | 39233 ft | 419 kts | 182° |
| 2026-04-19 17:40 | 24.59067 | -104.96707 | 39234 ft | 419 kts | 182° |
| 2026-04-19 17:40 | 24.53261 | -104.96059 | 39242 ft | 419 kts | 182° |
| 2026-04-19 17:41 | 24.47463 | -104.95414 | 39239 ft | 419 kts | 182° |
| 2026-04-19 17:41 | 24.41670 | -104.94770 | 39238 ft | 418 kts | 182° |
| 2026-04-19 17:42 | 24.35868 | -104.94125 | 39248 ft | 419 kts | 182° |
| 2026-04-19 17:42 | 24.30113 | -104.93486 | 39249 ft | 418 kts | 182° |
| 2026-04-19 17:43 | 24.24318 | -104.92843 | 39250 ft | 418 kts | 182° |
| 2026-04-19 17:43 | 24.18486 | -104.92197 | 39261 ft | 418 kts | 182° |
| 2026-04-19 17:44 | 24.12729 | -104.91560 | 39257 ft | 418 kts | 182° |
| 2026-04-19 17:44 | 24.06943 | -104.90919 | 39255 ft | 418 kts | 182° |
| 2026-04-19 17:45 | 24.01162 | -104.90280 | 39260 ft | 417 kts | 182° |
| 2026-04-19 17:45 | 23.95386 | -104.89642 | 39255 ft | 417 kts | 182° |
| 2026-04-19 17:46 | 23.89617 | -104.89006 | 39261 ft | 417 kts | 182° |
| 2026-04-19 17:46 | 23.83842 | -104.88369 | 39249 ft | 416 kts | 181° |
| 2026-04-19 17:47 | 23.78077 | -104.87734 | 39243 ft | 417 kts | 182° |
| 2026-04-19 17:47 | 23.72307 | -104.87100 | 39242 ft | 417 kts | 182° |
| 2026-04-19 17:48 | 23.66540 | -104.86466 | 39242 ft | 417 kts | 181° |
| 2026-04-19 17:48 | 23.60763 | -104.85831 | 39234 ft | 417 kts | 181° |
| 2026-04-19 17:49 | 23.55002 | -104.85199 | 39235 ft | 416 kts | 182° |
| 2026-04-19 17:49 | 23.49241 | -104.84568 | 39223 ft | 417 kts | 182° |
| 2026-04-19 17:50 | 23.43470 | -104.83935 | 39224 ft | 417 kts | 182° |
| 2026-04-19 17:50 | 23.37703 | -104.83304 | 39210 ft | 416 kts | 181° |
| 2026-04-19 17:51 | 23.31945 | -104.82674 | 39209 ft | 415 kts | 182° |
| 2026-04-19 17:51 | 23.26240 | -104.82050 | 39182 ft | 414 kts | 181° |
| 2026-04-19 17:52 | 23.20520 | -104.81427 | 39218 ft | 414 kts | 181° |
| 2026-04-19 17:52 | 23.14773 | -104.80799 | 39196 ft | 415 kts | 181° |
| 2026-04-19 17:53 | 23.09043 | -104.80175 | 39219 ft | 414 kts | 181° |
| 2026-04-19 17:53 | 23.03295 | -104.79550 | 39172 ft | 415 kts | 181° |
| 2026-04-19 17:54 | 22.97561 | -104.78926 | 39175 ft | 414 kts | 181° |
| 2026-04-19 17:54 | 22.91813 | -104.78301 | 39173 ft | 415 kts | 181° |
| 2026-04-19 17:55 | 22.86068 | -104.77677 | 39162 ft | 415 kts | 181° |
| 2026-04-19 17:55 | 22.80318 | -104.77053 | 39149 ft | 415 kts | 181° |
| 2026-04-19 17:56 | 22.74596 | -104.76431 | 38979 ft | 406 kts | 181° |
| 2026-04-19 17:56 | 22.71815 | -104.76130 | 38784 ft | 395 kts | 182° |
| 2026-04-19 17:56 | 22.69113 | -104.75838 | 38540 ft | 387 kts | 182° |
| 2026-04-19 17:57 | 22.66442 | -104.75549 | 38088 ft | 384 kts | 182° |
| 2026-04-19 17:57 | 22.63787 | -104.75262 | 37580 ft | 383 kts | 182° |
| 2026-04-19 17:57 | 22.61166 | -104.74978 | 37060 ft | 383 kts | 182° |
| 2026-04-19 17:57 | 22.58523 | -104.74693 | 36541 ft | 381 kts | 182° |
| 2026-04-19 17:58 | 22.55889 | -104.74408 | 36063 ft | 380 kts | 182° |
| 2026-04-19 17:58 | 22.53265 | -104.74124 | 35576 ft | 378 kts | 181° |
| 2026-04-19 17:58 | 22.50653 | -104.73842 | 35111 ft | 376 kts | 181° |
| 2026-04-19 17:58 | 22.48056 | -104.73561 | 34645 ft | 374 kts | 181° |
| 2026-04-19 17:59 | 22.45475 | -104.73283 | 34177 ft | 372 kts | 181° |
| 2026-04-19 17:59 | 22.42909 | -104.73006 | 33733 ft | 369 kts | 181° |
| 2026-04-19 17:59 | 22.40360 | -104.72731 | 33275 ft | 367 kts | 181° |
| 2026-04-19 17:59 | 22.37822 | -104.72458 | 32826 ft | 365 kts | 181° |
| 2026-04-19 18:00 | 22.35304 | -104.72186 | 32401 ft | 363 kts | 181° |
| 2026-04-19 18:00 | 22.32799 | -104.71917 | 31961 ft | 361 kts | 181° |
| 2026-04-19 18:00 | 22.30306 | -104.71647 | 31544 ft | 359 kts | 181° |
| 2026-04-19 18:00 | 22.27833 | -104.71381 | 31131 ft | 357 kts | 181° |
| 2026-04-19 18:01 | 22.25369 | -104.71116 | 30723 ft | 355 kts | 181° |
| 2026-04-19 18:01 | 22.22915 | -104.70853 | 30309 ft | 353 kts | 181° |
| 2026-04-19 18:01 | 22.20478 | -104.70590 | 29927 ft | 351 kts | 180° |
| 2026-04-19 18:01 | 22.18049 | -104.70329 | 29515 ft | 350 kts | 180° |
| 2026-04-19 18:02 | 22.15627 | -104.70069 | 29119 ft | 348 kts | 180° |
| 2026-04-19 18:02 | 22.13225 | -104.69810 | 28739 ft | 346 kts | 180° |
| 2026-04-19 18:02 | 22.10836 | -104.69554 | 28350 ft | 344 kts | 180° |
| 2026-04-19 18:02 | 22.08462 | -104.69299 | 27959 ft | 341 kts | 180° |
| 2026-04-19 18:03 | 22.06106 | -104.69046 | 27599 ft | 339 kts | 180° |
| 2026-04-19 18:03 | 22.03769 | -104.68795 | 27225 ft | 338 kts | 180° |
| 2026-04-19 18:03 | 22.01432 | -104.68545 | 26863 ft | 336 kts | 180° |
| 2026-04-19 18:03 | 21.99142 | -104.68300 | 26500 ft | 335 kts | 180° |
| 2026-04-19 18:04 | 21.96830 | -104.68051 | 26127 ft | 333 kts | 179° |
| 2026-04-19 18:04 | 21.94531 | -104.67805 | 25775 ft | 332 kts | 179° |
| 2026-04-19 18:04 | 21.92239 | -104.67560 | 25417 ft | 330 kts | 179° |
| 2026-04-19 18:04 | 21.89956 | -104.67315 | 25061 ft | 329 kts | 179° |
| 2026-04-19 18:05 | 21.87682 | -104.67072 | 24698 ft | 327 kts | 179° |
| 2026-04-19 18:05 | 21.85418 | -104.66868 | 24262 ft | 323 kts | 185° |
| 2026-04-19 18:05 | 21.83239 | -104.67243 | 23565 ft | 315 kts | 202° |
| 2026-04-19 18:05 | 21.81197 | -104.68061 | 22940 ft | 312 kts | 201° |
| 2026-04-19 18:06 | 21.79144 | -104.68822 | 22306 ft | 311 kts | 201° |
| 2026-04-19 18:06 | 21.77096 | -104.69579 | 21666 ft | 311 kts | 201° |
| 2026-04-19 18:06 | 21.75055 | -104.70332 | 21028 ft | 310 kts | 201° |
| 2026-04-19 18:06 | 21.73708 | -104.70829 | 20606 ft | 309 kts | 201° |
| 2026-04-19 18:07 | 21.69663 | -104.72320 | 19348 ft | 306 kts | 200° |
| 2026-04-19 18:07 | 21.67654 | -104.73061 | 18720 ft | 305 kts | 200° |
| 2026-04-19 18:07 | 21.65648 | -104.73800 | 18100 ft | 304 kts | 200° |
| 2026-04-19 18:08 | 21.63018 | -104.74769 | 17414 ft | 299 kts | 200° |
| 2026-04-19 18:08 | 21.61698 | -104.75256 | 17112 ft | 294 kts | 200° |
| 2026-04-19 18:08 | 21.59792 | -104.75958 | 16753 ft | 285 kts | 200° |
| 2026-04-19 18:08 | 21.57944 | -104.76640 | 16438 ft | 278 kts | 200° |
| 2026-04-19 18:09 | 21.56085 | -104.77324 | 16087 ft | 287 kts | 200° |
| 2026-04-19 18:09 | 21.54182 | -104.78023 | 15752 ft | 292 kts | 200° |
| 2026-04-19 18:09 | 21.52260 | -104.78730 | 15428 ft | 291 kts | 199° |
| 2026-04-19 18:09 | 21.50348 | -104.79432 | 15102 ft | 290 kts | 199° |
| 2026-04-19 18:10 | 21.48447 | -104.80131 | 14767 ft | 288 kts | 199° |
| 2026-04-19 18:10 | 21.46560 | -104.80824 | 14441 ft | 287 kts | 199° |
| 2026-04-19 18:10 | 21.44674 | -104.81516 | 14106 ft | 285 kts | 199° |
| 2026-04-19 18:10 | 21.42805 | -104.82203 | 13812 ft | 283 kts | 199° |
| 2026-04-19 18:11 | 21.40953 | -104.82884 | 13525 ft | 281 kts | 199° |
| 2026-04-19 18:11 | 21.39139 | -104.83549 | 13222 ft | 278 kts | 199° |
| 2026-04-19 18:11 | 21.37309 | -104.84221 | 12899 ft | 277 kts | 199° |
| 2026-04-19 18:11 | 21.35493 | -104.84887 | 12602 ft | 275 kts | 199° |
| 2026-04-19 18:12 | 21.33689 | -104.85548 | 12308 ft | 273 kts | 199° |
| 2026-04-19 18:12 | 21.31900 | -104.86205 | 12019 ft | 271 kts | 199° |
| 2026-04-19 18:12 | 21.30125 | -104.86856 | 11750 ft | 268 kts | 199° |
| 2026-04-19 18:12 | 21.28368 | -104.87500 | 11498 ft | 266 kts | 199° |
| 2026-04-19 18:13 | 21.26592 | -104.88151 | 11249 ft | 273 kts | 199° |
| 2026-04-19 18:13 | 21.24781 | -104.88813 | 10963 ft | 277 kts | 198° |
| 2026-04-19 18:13 | 21.22954 | -104.89482 | 10650 ft | 278 kts | 198° |
| 2026-04-19 18:13 | 21.21114 | -104.90155 | 10340 ft | 280 kts | 198° |
| 2026-04-19 18:14 | 21.19272 | -104.90829 | 10023 ft | 280 kts | 198° |
| 2026-04-19 18:14 | 21.17432 | -104.91502 | 9696 ft | 279 kts | 198° |
| 2026-04-19 18:14 | 21.15601 | -104.92172 | 9422 ft | 276 kts | 198° |
| 2026-04-19 18:14 | 21.13789 | -104.92835 | 9123 ft | 275 kts | 198° |
| 2026-04-19 18:15 | 21.12002 | -104.93488 | 8818 ft | 267 kts | 198° |
| 2026-04-19 18:15 | 21.10273 | -104.94120 | 8532 ft | 257 kts | 198° |
| 2026-04-19 18:15 | 21.08611 | -104.94727 | 8276 ft | 248 kts | 198° |
| 2026-04-19 18:15 | 21.06995 | -104.95318 | 7999 ft | 243 kts | 198° |
| 2026-04-19 18:16 | 21.05404 | -104.95902 | 7726 ft | 241 kts | 198° |
| 2026-04-19 18:16 | 21.03821 | -104.96479 | 7443 ft | 239 kts | 198° |
| 2026-04-19 18:16 | 21.02249 | -104.97052 | 7142 ft | 237 kts | 198° |
| 2026-04-19 18:16 | 21.00683 | -104.97623 | 6883 ft | 237 kts | 198° |
| 2026-04-19 18:17 | 20.99124 | -104.98193 | 6650 ft | 236 kts | 198° |
| 2026-04-19 18:17 | 20.97565 | -104.98762 | 6385 ft | 237 kts | 198° |
| 2026-04-19 18:17 | 20.96002 | -104.99330 | 6095 ft | 238 kts | 198° |
| 2026-04-19 18:17 | 20.94430 | -104.99903 | 5806 ft | 239 kts | 198° |
| 2026-04-19 18:18 | 20.92868 | -105.00471 | 5597 ft | 235 kts | 198° |
| 2026-04-19 18:18 | 20.91334 | -105.01030 | 5451 ft | 232 kts | 198° |
| 2026-04-19 18:18 | 20.89833 | -105.01577 | 5322 ft | 231 kts | 198° |
| 2026-04-19 18:18 | 20.88355 | -105.02270 | 5197 ft | 230 kts | 217° |
| 2026-04-19 18:19 | 20.87207 | -105.03465 | 4966 ft | 232 kts | 226° |
| 2026-04-19 18:19 | 20.86105 | -105.04700 | 4675 ft | 233 kts | 226° |
| 2026-04-19 18:19 | 20.84992 | -105.05956 | 4392 ft | 232 kts | 226° |
| 2026-04-19 18:19 | 20.83896 | -105.07202 | 4157 ft | 229 kts | 226° |
| 2026-04-19 18:20 | 20.82810 | -105.08441 | 3884 ft | 228 kts | 227° |
| 2026-04-19 18:20 | 20.81737 | -105.09669 | 3643 ft | 224 kts | 226° |
| 2026-04-19 18:20 | 20.80672 | -105.10888 | 3357 ft | 224 kts | 226° |
| 2026-04-19 18:20 | 20.79614 | -105.12102 | 3074 ft | 222 kts | 226° |
| 2026-04-19 18:21 | 20.78599 | -105.13269 | 2908 ft | 206 kts | 227° |
| 2026-04-19 18:21 | 20.77671 | -105.14333 | 2754 ft | 183 kts | 227° |
| 2026-04-19 18:21 | 20.76854 | -105.15297 | 2420 ft | 166 kts | 229° |
| 2026-04-19 18:21 | 20.76129 | -105.16177 | 2167 ft | 152 kts | 228° |
| 2026-04-19 18:22 | 20.75445 | -105.17003 | 1859 ft | 147 kts | 227° |
| 2026-04-19 18:22 | 20.74755 | -105.17777 | 1647 ft | 142 kts | 226° |
| 2026-04-19 18:22 | 20.74080 | -105.18519 | 1622 ft | 142 kts | 225° |
| 2026-04-19 18:22 | 20.73371 | -105.19280 | 1450 ft | 144 kts | 225° |
| 2026-04-19 18:23 | 20.72678 | -105.20037 | 1181 ft | 142 kts | 228° |
| 2026-04-19 18:23 | 20.72028 | -105.20803 | 934 ft | 137 kts | 229° |
| 2026-04-19 18:23 | 20.71373 | -105.21557 | 669 ft | 140 kts | 227° |
| 2026-04-19 18:23 | 20.70705 | -105.22323 | 471 ft | 140 kts | 228° |
| 2026-04-19 18:24 | 20.70051 | -105.23077 | 328 ft | 138 kts | 227° |
| 2026-04-19 18:24 | 20.69395 | -105.23827 | 185 ft | 137 kts | 228° |
| 2026-04-19 18:24 | 20.68758 | -105.24556 | 35 ft | 128 kts | 228° |
| 2026-04-19 18:24 | 20.68238 | -105.25156 | 30 ft | 81 kts | 226° |
| 2026-04-19 18:25 | 20.67953 | -105.25483 | 33 ft | 51 kts | 227° |
| 2026-04-19 18:25 | 20.67690 | -105.25653 | 31 ft | 24 kts | 197° |
| 2026-04-19 18:25 | 20.67611 | -105.25618 | 31 ft | 12 kts | 59° |
| 2026-04-19 18:25 | 20.67669 | -105.25549 | 31 ft | 14 kts | 49° |
| 2026-04-19 18:26 | 20.67740 | -105.25465 | 32 ft | 17 kts | 47° |
| 2026-04-19 18:26 | 20.67829 | -105.25365 | 32 ft | 20 kts | 46° |
| 2026-04-19 18:26 | 20.67914 | -105.25264 | 32 ft | 13 kts | 66° |
| 2026-04-19 18:26 | 20.67870 | -105.25182 | 32 ft | 15 kts | 130° |
| 2026-04-19 18:27 | 20.67800 | -105.25109 | 31 ft | 9 kts | 125° |
| 2026-04-19 18:27 | 20.67834 | -105.25096 | 31 ft | 10 kts | 283° |
| 2026-04-19 18:27 | 20.67851 | -105.25161 | 31 ft | 12 kts | 316° |
| 2026-04-19 18:27 | 20.67932 | -105.25229 | 32 ft | 11 kts | 352° |
| 2026-04-19 18:28 | 20.67990 | -105.25178 | 32 ft | 14 kts | 50° |
| 2026-04-19 18:28 | 20.68068 | -105.25084 | 31 ft | 19 kts | 47° |
| 2026-04-19 18:28 | 20.68073 | -105.25016 | 31 ft | 8 kts | 145° |
| 2026-04-19 18:28 | 20.68018 | -105.24965 | 31 ft | 13 kts | 138° |
| 2026-04-19 18:29 | 20.67990 | -105.24874 | 31 ft | 16 kts | 73° |
| 2026-04-19 18:29 | 20.67947 | -105.24781 | 31 ft | 11 kts | 120° |
| 2026-04-19 18:29 | 20.67971 | -105.24737 | 31 ft | 0 kts | 46° |
| 2026-04-19 18:29 | 20.67977 | -105.24730 | 31 ft | 1 kts | 45° |
| 2026-04-19 18:30 | 20.67980 | -105.24727 | 31 ft | 0 kts | 45° |